sensor_id;sensor_type;location;lat;lon;timestamp;pressure;altitude;pressure_sealevel;temperature;humidity
6528;BME280;64597;42.664;23.256;2024-01-15T00:00:41;93998.31;;;-1.11;61.84
6528;BME280;64597;42.664;23.256;2024-01-15T00:03:06;93979.13;;;-1.31;61.73
6528;BME280;64597;42.664;23.256;2024-01-15T00:05:32;93993.38;;;-1.35;61.94
6528;BME280;64597;42.664;23.256;2024-01-15T00:07:57;94002.66;;;-1.26;61.89
6528;BME280;64597;42.664;23.256;2024-01-15T00:10:23;93983.94;;;-1.28;62.11
6528;BME280;64597;42.664;23.256;2024-01-15T00:12:49;93993.94;;;-1.25;61.92
6528;BME280;64597;42.664;23.256;2024-01-15T00:15:15;93988.41;;;-1.22;62.23
6528;BME280;64597;42.664;23.256;2024-01-15T00:17:40;93999.91;;;-1.24;61.99
6528;BME280;64597;42.664;23.256;2024-01-15T00:20:06;93992.00;;;-1.23;62.41
6528;BME280;64597;42.664;23.256;2024-01-15T00:22:32;93995.53;;;-1.24;62.76
6528;BME280;64597;42.664;23.256;2024-01-15T00:24:57;93977.88;;;-1.35;62.53
6528;BME280;64597;42.664;23.256;2024-01-15T00:27:23;93997.69;;;-1.27;62.30
6528;BME280;64597;42.664;23.256;2024-01-15T00:29:49;93995.00;;;-1.34;62.45
6528;BME280;64597;42.664;23.256;2024-01-15T00:32:16;93991.22;;;-1.46;62.44
6528;BME280;64597;42.664;23.256;2024-01-15T00:34:42;94009.25;;;-1.38;62.37
6528;BME280;64597;42.664;23.256;2024-01-15T00:37:07;94005.66;;;-1.37;62.21
6528;BME280;64597;42.664;23.256;2024-01-15T00:39:33;93998.91;;;-1.38;62.64
6528;BME280;64597;42.664;23.256;2024-01-15T00:41:58;94009.94;;;-1.44;62.96
6528;BME280;64597;42.664;23.256;2024-01-15T00:44:24;94000.66;;;-1.53;62.89
6528;BME280;64597;42.664;23.256;2024-01-15T00:46:49;93990.75;;;-1.64;62.55
6528;BME280;64597;42.664;23.256;2024-01-15T00:49:15;94000.91;;;-1.62;62.68
6528;BME280;64597;42.664;23.256;2024-01-15T00:51:41;94008.91;;;-1.72;63.52
6528;BME280;64597;42.664;23.256;2024-01-15T00:54:06;94000.63;;;-1.68;63.49
6528;BME280;64597;42.664;23.256;2024-01-15T00:56:32;94008.22;;;-1.66;63.16
6528;BME280;64597;42.664;23.256;2024-01-15T00:58:57;93996.88;;;-1.65;63.06
6528;BME280;64597;42.664;23.256;2024-01-15T01:01:23;93984.03;;;-1.73;63.39
6528;BME280;64597;42.664;23.256;2024-01-15T01:03:48;93993.41;;;-1.72;63.10
6528;BME280;64597;42.664;23.256;2024-01-15T01:06:14;93992.47;;;-1.79;63.89
6528;BME280;64597;42.664;23.256;2024-01-15T01:08:39;93996.84;;;-1.80;63.66
6528;BME280;64597;42.664;23.256;2024-01-15T01:11:05;93978.56;;;-1.93;63.47
6528;BME280;64597;42.664;23.256;2024-01-15T01:13:32;93996.31;;;-1.75;63.11
6528;BME280;64597;42.664;23.256;2024-01-15T01:15:58;93992.31;;;-1.78;63.58
6528;BME280;64597;42.664;23.256;2024-01-15T01:18:23;93994.09;;;-1.78;63.82
6528;BME280;64597;42.664;23.256;2024-01-15T01:20:49;93998.28;;;-1.77;63.77
6528;BME280;64597;42.664;23.256;2024-01-15T01:23:14;93984.72;;;-1.79;63.08
6528;BME280;64597;42.664;23.256;2024-01-15T01:25:39;93981.28;;;-1.94;63.97
6528;BME280;64597;42.664;23.256;2024-01-15T01:28:05;93980.97;;;-1.91;64.00
6528;BME280;64597;42.664;23.256;2024-01-15T01:30:30;93954.13;;;-2.05;63.73
6528;BME280;64597;42.664;23.256;2024-01-15T01:32:56;93961.44;;;-1.94;64.10
6528;BME280;64597;42.664;23.256;2024-01-15T01:35:22;93967.22;;;-1.92;63.92
6528;BME280;64597;42.664;23.256;2024-01-15T01:37:47;93966.53;;;-1.86;63.68
6528;BME280;64597;42.664;23.256;2024-01-15T01:40:13;93955.00;;;-1.98;63.72
6528;BME280;64597;42.664;23.256;2024-01-15T01:42:38;93950.72;;;-2.05;63.89
6528;BME280;64597;42.664;23.256;2024-01-15T01:45:04;93971.88;;;-1.87;64.37
6528;BME280;64597;42.664;23.256;2024-01-15T01:47:29;93951.59;;;-1.90;63.84
6528;BME280;64597;42.664;23.256;2024-01-15T01:49:55;93969.66;;;-1.90;64.13
6528;BME280;64597;42.664;23.256;2024-01-15T01:52:21;93964.50;;;-1.90;64.09
6528;BME280;64597;42.664;23.256;2024-01-15T01:54:47;93956.28;;;-1.94;63.94
6528;BME280;64597;42.664;23.256;2024-01-15T01:57:13;93959.03;;;-1.95;64.23
6528;BME280;64597;42.664;23.256;2024-01-15T01:59:39;93942.06;;;-2.12;63.87
6528;BME280;64597;42.664;23.256;2024-01-15T02:02:05;93951.69;;;-2.06;64.60
6528;BME280;64597;42.664;23.256;2024-01-15T02:04:31;93956.53;;;-2.03;64.18
6528;BME280;64597;42.664;23.256;2024-01-15T02:06:57;93954.22;;;-1.98;64.29
6528;BME280;64597;42.664;23.256;2024-01-15T02:09:22;93949.59;;;-2.03;64.32
6528;BME280;64597;42.664;23.256;2024-01-15T02:11:48;93932.09;;;-2.15;64.23
6528;BME280;64597;42.664;23.256;2024-01-15T02:14:14;93946.53;;;-2.06;64.23
6528;BME280;64597;42.664;23.256;2024-01-15T02:16:39;93937.81;;;-2.05;63.91
6528;BME280;64597;42.664;23.256;2024-01-15T02:19:04;93919.94;;;-2.07;64.24
6528;BME280;64597;42.664;23.256;2024-01-15T02:21:31;93921.25;;;-2.11;64.65
6528;BME280;64597;42.664;23.256;2024-01-15T02:23:57;93888.84;;;-2.13;64.74
6528;BME280;64597;42.664;23.256;2024-01-15T02:26:23;93849.38;;;-2.22;64.56
6528;BME280;64597;42.664;23.256;2024-01-15T02:28:49;93884.66;;;-2.00;64.80
6528;BME280;64597;42.664;23.256;2024-01-15T02:31:15;93888.25;;;-2.01;64.53
6528;BME280;64597;42.664;23.256;2024-01-15T02:33:42;93889.84;;;-2.00;64.43
6528;BME280;64597;42.664;23.256;2024-01-15T02:36:08;93894.56;;;-2.03;64.27
6528;BME280;64597;42.664;23.256;2024-01-15T02:38:33;93903.63;;;-2.07;64.32
6528;BME280;64597;42.664;23.256;2024-01-15T02:40:59;93886.50;;;-2.08;64.84
6528;BME280;64597;42.664;23.256;2024-01-15T02:43:24;93894.88;;;-2.06;64.44
6528;BME280;64597;42.664;23.256;2024-01-15T02:45:50;93886.19;;;-2.05;64.26
6528;BME280;64597;42.664;23.256;2024-01-15T02:48:15;93893.75;;;-2.04;64.24
6528;BME280;64597;42.664;23.256;2024-01-15T02:50:40;93875.28;;;-2.15;64.34
6528;BME280;64597;42.664;23.256;2024-01-15T02:53:06;93898.09;;;-2.04;64.26
6528;BME280;64597;42.664;23.256;2024-01-15T02:55:31;93888.75;;;-2.05;64.63
6528;BME280;64597;42.664;23.256;2024-01-15T02:57:57;93868.25;;;-2.21;64.56
6528;BME280;64597;42.664;23.256;2024-01-15T03:00:22;93887.69;;;-2.11;64.80
6528;BME280;64597;42.664;23.256;2024-01-15T03:02:50;93887.50;;;-2.09;64.85
6528;BME280;64597;42.664;23.256;2024-01-15T03:05:16;93891.69;;;-2.08;65.20
6528;BME280;64597;42.664;23.256;2024-01-15T03:07:42;93874.72;;;-2.03;65.00
6528;BME280;64597;42.664;23.256;2024-01-15T03:10:08;93878.34;;;-1.97;65.14
6528;BME280;64597;42.664;23.256;2024-01-15T03:12:33;93885.59;;;-1.93;65.60
6528;BME280;64597;42.664;23.256;2024-01-15T03:14:59;93876.69;;;-1.90;65.19
6528;BME280;64597;42.664;23.256;2024-01-15T03:17:24;93876.06;;;-1.92;65.35
6528;BME280;64597;42.664;23.256;2024-01-15T03:19:50;93844.16;;;-1.99;65.34
6528;BME280;64597;42.664;23.256;2024-01-15T03:22:16;93852.28;;;-1.88;65.70
6528;BME280;64597;42.664;23.256;2024-01-15T03:24:42;93864.66;;;-1.83;65.29
6528;BME280;64597;42.664;23.256;2024-01-15T03:27:07;93831.06;;;-1.98;65.22
6528;BME280;64597;42.664;23.256;2024-01-15T03:29:33;93855.16;;;-1.68;65.14
6528;BME280;64597;42.664;23.256;2024-01-15T03:31:58;93853.91;;;-1.72;65.50
6528;BME280;64597;42.664;23.256;2024-01-15T03:34:24;93865.63;;;-1.70;65.62
6528;BME280;64597;42.664;23.256;2024-01-15T03:36:49;93860.94;;;-1.66;65.55
6528;BME280;64597;42.664;23.256;2024-01-15T03:39:14;93865.75;;;-1.63;65.47
6528;BME280;64597;42.664;23.256;2024-01-15T03:41:40;93886.88;;;-1.59;65.25
6528;BME280;64597;42.664;23.256;2024-01-15T03:44:05;93855.78;;;-1.66;65.58
6528;BME280;64597;42.664;23.256;2024-01-15T03:46:31;93857.03;;;-1.62;65.13
6528;BME280;64597;42.664;23.256;2024-01-15T03:48:56;93855.41;;;-1.63;65.54
6528;BME280;64597;42.664;23.256;2024-01-15T03:51:22;93850.84;;;-1.61;65.08
6528;BME280;64597;42.664;23.256;2024-01-15T03:53:47;93848.28;;;-1.61;65.40
6528;BME280;64597;42.664;23.256;2024-01-15T03:56:13;93849.44;;;-1.63;65.35
6528;BME280;64597;42.664;23.256;2024-01-15T03:58:38;93861.81;;;-1.59;65.72
6528;BME280;64597;42.664;23.256;2024-01-15T04:01:08;93854.06;;;-1.59;65.31
6528;BME280;64597;42.664;23.256;2024-01-15T04:03:34;93846.31;;;-1.59;65.54
6528;BME280;64597;42.664;23.256;2024-01-15T04:05:59;93847.31;;;-1.60;65.38
6528;BME280;64597;42.664;23.256;2024-01-15T04:08:25;93824.78;;;-1.66;65.28
6528;BME280;64597;42.664;23.256;2024-01-15T04:10:50;93831.63;;;-1.58;65.30
6528;BME280;64597;42.664;23.256;2024-01-15T04:13:15;93833.94;;;-1.63;64.84
6528;BME280;64597;42.664;23.256;2024-01-15T04:15:41;93836.50;;;-1.63;65.16
6528;BME280;64597;42.664;23.256;2024-01-15T04:18:06;93839.28;;;-1.65;65.44
6528;BME280;64597;42.664;23.256;2024-01-15T04:20:32;93834.91;;;-1.64;65.33
6528;BME280;64597;42.664;23.256;2024-01-15T04:22:57;93833.06;;;-1.71;65.03
6528;BME280;64597;42.664;23.256;2024-01-15T04:25:22;93846.69;;;-1.62;64.91
6528;BME280;64597;42.664;23.256;2024-01-15T04:27:48;93835.19;;;-1.74;65.07
6528;BME280;64597;42.664;23.256;2024-01-15T04:30:13;93733.31;;;-2.30;64.70
6528;BME280;64597;42.664;23.256;2024-01-15T04:32:39;93851.03;;;-1.62;64.66
6528;BME280;64597;42.664;23.256;2024-01-15T04:35:04;93814.78;;;-1.84;65.03
6528;BME280;64597;42.664;23.256;2024-01-15T04:37:29;93851.56;;;-1.67;65.23
6528;BME280;64597;42.664;23.256;2024-01-15T04:39:55;93846.16;;;-1.72;65.07
6528;BME280;64597;42.664;23.256;2024-01-15T04:42:22;93838.94;;;-1.77;65.28
6528;BME280;64597;42.664;23.256;2024-01-15T04:44:48;93816.59;;;-1.84;65.01
6528;BME280;64597;42.664;23.256;2024-01-15T04:47:14;93838.13;;;-1.77;64.78
6528;BME280;64597;42.664;23.256;2024-01-15T04:49:39;93831.09;;;-1.83;64.59
6528;BME280;64597;42.664;23.256;2024-01-15T04:52:05;93825.66;;;-1.88;65.17
6528;BME280;64597;42.664;23.256;2024-01-15T04:54:33;93816.13;;;-1.88;65.14
6528;BME280;64597;42.664;23.256;2024-01-15T04:56:59;93814.97;;;-1.85;64.70
6528;BME280;64597;42.664;23.256;2024-01-15T04:59:24;93809.78;;;-1.85;65.27
6528;BME280;64597;42.664;23.256;2024-01-15T05:01:49;93803.03;;;-1.86;64.85
6528;BME280;64597;42.664;23.256;2024-01-15T05:04:15;93799.28;;;-1.98;65.23
6528;BME280;64597;42.664;23.256;2024-01-15T05:06:40;93807.41;;;-1.87;65.15
6528;BME280;64597;42.664;23.256;2024-01-15T05:09:06;93804.28;;;-1.82;65.50
6528;BME280;64597;42.664;23.256;2024-01-15T05:11:32;93797.78;;;-1.78;65.29
6528;BME280;64597;42.664;23.256;2024-01-15T05:13:57;93791.53;;;-1.84;65.44
6528;BME280;64597;42.664;23.256;2024-01-15T05:16:23;93811.47;;;-1.78;65.28
6528;BME280;64597;42.664;23.256;2024-01-15T05:18:48;93813.44;;;-1.80;65.25
6528;BME280;64597;42.664;23.256;2024-01-15T05:21:13;93767.06;;;-2.17;65.23
6528;BME280;64597;42.664;23.256;2024-01-15T05:23:39;93809.78;;;-1.85;65.59
6528;BME280;64597;42.664;23.256;2024-01-15T05:26:04;93819.31;;;-1.86;65.21
6528;BME280;64597;42.664;23.256;2024-01-15T05:28:30;93821.47;;;-1.89;65.48
6528;BME280;64597;42.664;23.256;2024-01-15T05:30:55;93799.91;;;-1.96;65.29
6528;BME280;64597;42.664;23.256;2024-01-15T05:33:23;93812.75;;;-1.88;65.36
6528;BME280;64597;42.664;23.256;2024-01-15T05:35:49;93811.41;;;-1.84;65.35
6528;BME280;64597;42.664;23.256;2024-01-15T05:38:16;93804.63;;;-1.85;65.83
6528;BME280;64597;42.664;23.256;2024-01-15T05:40:41;93807.84;;;-1.83;65.63
6528;BME280;64597;42.664;23.256;2024-01-15T05:43:07;93807.03;;;-1.84;65.86
6528;BME280;64597;42.664;23.256;2024-01-15T05:45:34;93790.38;;;-1.81;65.70
6528;BME280;64597;42.664;23.256;2024-01-15T05:48:00;93784.88;;;-1.78;66.23
6528;BME280;64597;42.664;23.256;2024-01-15T05:50:25;93790.03;;;-1.78;65.72
6528;BME280;64597;42.664;23.256;2024-01-15T05:52:50;93791.19;;;-1.81;65.68
6528;BME280;64597;42.664;23.256;2024-01-15T05:55:17;93790.38;;;-1.81;66.02
6528;BME280;64597;42.664;23.256;2024-01-15T05:57:44;93797.94;;;-1.80;65.52
6528;BME280;64597;42.664;23.256;2024-01-15T06:00:09;93792.63;;;-1.78;65.52
6528;BME280;64597;42.664;23.256;2024-01-15T06:02:37;93791.63;;;-1.77;65.15
6528;BME280;64597;42.664;23.256;2024-01-15T06:05:03;93775.31;;;-1.78;65.23
6528;BME280;64597;42.664;23.256;2024-01-15T06:07:29;93783.53;;;-1.74;65.40
6528;BME280;64597;42.664;23.256;2024-01-15T06:09:54;93784.94;;;-1.72;65.02
6528;BME280;64597;42.664;23.256;2024-01-15T06:12:22;93779.72;;;-1.78;65.08
6528;BME280;64597;42.664;23.256;2024-01-15T06:14:48;93784.50;;;-1.75;65.50
6528;BME280;64597;42.664;23.256;2024-01-15T06:17:13;93779.88;;;-1.80;65.59
6528;BME280;64597;42.664;23.256;2024-01-15T06:19:39;93792.88;;;-1.73;65.58
6528;BME280;64597;42.664;23.256;2024-01-15T06:22:04;93778.19;;;-1.73;65.23
6528;BME280;64597;42.664;23.256;2024-01-15T06:24:30;93777.03;;;-1.70;65.07
6528;BME280;64597;42.664;23.256;2024-01-15T06:26:55;93776.66;;;-1.67;65.53
6528;BME280;64597;42.664;23.256;2024-01-15T06:29:21;93766.22;;;-1.74;65.35
6528;BME280;64597;42.664;23.256;2024-01-15T06:31:46;93780.75;;;-1.58;65.75
6528;BME280;64597;42.664;23.256;2024-01-15T06:34:12;93785.00;;;-1.50;65.57
6528;BME280;64597;42.664;23.256;2024-01-15T06:36:37;93786.69;;;-1.43;65.35
6528;BME280;64597;42.664;23.256;2024-01-15T06:39:03;93773.31;;;-1.46;65.62
6528;BME280;64597;42.664;23.256;2024-01-15T06:41:28;93765.84;;;-1.41;65.52
6528;BME280;64597;42.664;23.256;2024-01-15T06:43:53;93797.47;;;-1.25;64.90
6528;BME280;64597;42.664;23.256;2024-01-15T06:46:22;93787.78;;;-1.16;65.09
6528;BME280;64597;42.664;23.256;2024-01-15T06:48:48;93780.94;;;-1.24;64.81
6528;BME280;64597;42.664;23.256;2024-01-15T06:51:15;93798.81;;;-1.08;64.91
6528;BME280;64597;42.664;23.256;2024-01-15T06:53:40;93776.44;;;-1.01;64.78
6528;BME280;64597;42.664;23.256;2024-01-15T06:56:06;93790.06;;;-0.92;64.47
6528;BME280;64597;42.664;23.256;2024-01-15T06:58:31;93791.72;;;-0.85;64.85
6528;BME280;64597;42.664;23.256;2024-01-15T07:00:57;93797.38;;;-0.74;64.98
6528;BME280;64597;42.664;23.256;2024-01-15T07:03:23;93795.75;;;-0.75;65.27
6528;BME280;64597;42.664;23.256;2024-01-15T07:05:48;93798.41;;;-0.69;64.51
6528;BME280;64597;42.664;23.256;2024-01-15T07:08:14;93810.81;;;-0.64;64.99
6528;BME280;64597;42.664;23.256;2024-01-15T07:10:39;93810.06;;;-0.58;64.87
6528;BME280;64597;42.664;23.256;2024-01-15T07:13:05;93798.75;;;-0.57;64.65
6528;BME280;64597;42.664;23.256;2024-01-15T07:15:30;93795.78;;;-0.54;64.64
6528;BME280;64597;42.664;23.256;2024-01-15T07:17:56;93784.47;;;-0.47;64.02
6528;BME280;64597;42.664;23.256;2024-01-15T07:20:22;93792.25;;;-0.47;64.14
6528;BME280;64597;42.664;23.256;2024-01-15T07:22:47;93778.13;;;-0.44;64.08
6528;BME280;64597;42.664;23.256;2024-01-15T07:25:13;93785.16;;;-0.38;63.69
6528;BME280;64597;42.664;23.256;2024-01-15T07:27:38;93770.47;;;-0.80;63.63
6528;BME280;64597;42.664;23.256;2024-01-15T07:30:04;93778.25;;;-0.31;64.45
6528;BME280;64597;42.664;23.256;2024-01-15T07:32:31;93760.88;;;-0.37;64.26
6528;BME280;64597;42.664;23.256;2024-01-15T07:35:00;93775.31;;;-0.22;64.65
6528;BME280;64597;42.664;23.256;2024-01-15T07:37:25;93772.97;;;-0.17;64.64
6528;BME280;64597;42.664;23.256;2024-01-15T07:39:51;93771.78;;;-0.14;64.16
6528;BME280;64597;42.664;23.256;2024-01-15T07:42:17;93775.78;;;-0.12;64.64
6528;BME280;64597;42.664;23.256;2024-01-15T07:44:42;93782.25;;;-0.01;64.27
6528;BME280;64597;42.664;23.256;2024-01-15T07:47:07;93781.69;;;0.04;63.84
6528;BME280;64597;42.664;23.256;2024-01-15T07:49:34;93789.25;;;0.05;64.33
6528;BME280;64597;42.664;23.256;2024-01-15T07:52:00;93790.28;;;0.11;64.16
6528;BME280;64597;42.664;23.256;2024-01-15T07:54:25;93785.75;;;0.19;64.19
6528;BME280;64597;42.664;23.256;2024-01-15T07:57:01;93747.66;;;0.13;63.43
6528;BME280;64597;42.664;23.256;2024-01-15T07:59:28;93758.13;;;0.33;63.14
6528;BME280;64597;42.664;23.256;2024-01-15T08:01:53;93764.09;;;0.33;63.19
6528;BME280;64597;42.664;23.256;2024-01-15T08:04:20;93738.13;;;0.27;63.29
6528;BME280;64597;42.664;23.256;2024-01-15T08:06:45;93762.56;;;0.45;63.39
6528;BME280;64597;42.664;23.256;2024-01-15T08:09:11;93768.59;;;0.52;63.53
6528;BME280;64597;42.664;23.256;2024-01-15T08:11:41;93786.56;;;0.60;63.52
6528;BME280;64597;42.664;23.256;2024-01-15T08:14:08;93772.22;;;0.64;63.44
6528;BME280;64597;42.664;23.256;2024-01-15T08:16:33;93778.66;;;0.75;63.33
6528;BME280;64597;42.664;23.256;2024-01-15T08:18:59;93788.06;;;0.82;63.24
6528;BME280;64597;42.664;23.256;2024-01-15T08:21:24;93792.47;;;0.89;62.40
6528;BME280;64597;42.664;23.256;2024-01-15T08:23:50;93782.31;;;0.94;62.21
6528;BME280;64597;42.664;23.256;2024-01-15T08:26:16;93782.13;;;1.02;61.73
6528;BME280;64597;42.664;23.256;2024-01-15T08:28:41;93794.72;;;1.11;61.54
6528;BME280;64597;42.664;23.256;2024-01-15T08:31:06;93787.97;;;1.23;61.22
6528;BME280;64597;42.664;23.256;2024-01-15T08:33:32;93788.38;;;1.27;60.63
6528;BME280;64597;42.664;23.256;2024-01-15T08:35:58;93778.22;;;1.32;60.05
6528;BME280;64597;42.664;23.256;2024-01-15T08:38:23;93773.44;;;1.42;59.57
6528;BME280;64597;42.664;23.256;2024-01-15T08:40:49;93774.25;;;1.49;59.65
6528;BME280;64597;42.664;23.256;2024-01-15T08:43:14;93770.44;;;1.58;59.40
6528;BME280;64597;42.664;23.256;2024-01-15T08:45:40;93768.25;;;1.61;59.06
6528;BME280;64597;42.664;23.256;2024-01-15T08:48:06;93758.25;;;1.58;58.28
6528;BME280;64597;42.664;23.256;2024-01-15T08:50:32;93766.44;;;1.62;57.60
6528;BME280;64597;42.664;23.256;2024-01-15T08:52:58;93754.66;;;1.66;57.74
6528;BME280;64597;42.664;23.256;2024-01-15T08:55:24;93744.69;;;1.63;58.00
6528;BME280;64597;42.664;23.256;2024-01-15T08:57:49;93744.06;;;1.87;56.89
6528;BME280;64597;42.664;23.256;2024-01-15T09:00:15;93732.06;;;1.93;56.61
6528;BME280;64597;42.664;23.256;2024-01-15T09:02:42;93730.25;;;2.06;56.86
6528;BME280;64597;42.664;23.256;2024-01-15T09:05:07;93733.22;;;2.16;56.30
6528;BME280;64597;42.664;23.256;2024-01-15T09:07:33;93714.81;;;2.24;56.21
6528;BME280;64597;42.664;23.256;2024-01-15T09:09:58;93704.19;;;2.77;55.48
6528;BME280;64597;42.664;23.256;2024-01-15T09:12:27;93681.94;;;3.18;54.75
6528;BME280;64597;42.664;23.256;2024-01-15T09:14:53;93679.16;;;3.63;54.59
6528;BME280;64597;42.664;23.256;2024-01-15T09:17:22;93680.56;;;4.08;52.94
6528;BME280;64597;42.664;23.256;2024-01-15T09:19:50;93672.50;;;4.28;51.16
6528;BME280;64597;42.664;23.256;2024-01-15T09:22:16;93667.44;;;4.51;51.09
6528;BME280;64597;42.664;23.256;2024-01-15T09:24:45;93667.56;;;4.74;50.49
6528;BME280;64597;42.664;23.256;2024-01-15T09:27:10;93660.09;;;4.89;49.41
6528;BME280;64597;42.664;23.256;2024-01-15T09:29:36;93668.25;;;4.81;49.25
6528;BME280;64597;42.664;23.256;2024-01-15T09:32:07;93650.38;;;4.66;49.28
6528;BME280;64597;42.664;23.256;2024-01-15T09:34:33;93636.38;;;4.61;49.28
6528;BME280;64597;42.664;23.256;2024-01-15T09:36:59;93627.41;;;4.57;48.61
6528;BME280;64597;42.664;23.256;2024-01-15T09:39:26;93648.88;;;4.59;49.01
6528;BME280;64597;42.664;23.256;2024-01-15T09:41:52;93632.31;;;4.65;49.46
6528;BME280;64597;42.664;23.256;2024-01-15T09:44:17;93619.16;;;4.60;48.33
6528;BME280;64597;42.664;23.256;2024-01-15T09:46:44;93613.03;;;4.66;48.93
6528;BME280;64597;42.664;23.256;2024-01-15T09:49:10;93613.09;;;4.89;49.07
6528;BME280;64597;42.664;23.256;2024-01-15T09:51:37;93605.09;;;5.02;49.38
6528;BME280;64597;42.664;23.256;2024-01-15T09:54:04;93606.63;;;5.44;48.25
6528;BME280;64597;42.664;23.256;2024-01-15T09:56:30;93583.00;;;5.74;47.54
6528;BME280;64597;42.664;23.256;2024-01-15T09:58:56;93588.66;;;6.17;46.76
6528;BME280;64597;42.664;23.256;2024-01-15T10:01:22;93575.50;;;6.40;45.15
6528;BME280;64597;42.664;23.256;2024-01-15T10:03:49;93596.38;;;6.63;44.15
6528;BME280;64597;42.664;23.256;2024-01-15T10:06:18;93590.00;;;6.88;43.62
6528;BME280;64597;42.664;23.256;2024-01-15T10:08:50;93581.03;;;7.00;43.33
6528;BME280;64597;42.664;23.256;2024-01-15T10:11:16;93579.94;;;6.96;42.79
6528;BME280;64597;42.664;23.256;2024-01-15T10:13:43;93550.06;;;6.97;42.41
6528;BME280;64597;42.664;23.256;2024-01-15T10:16:09;93566.63;;;7.31;42.63
6528;BME280;64597;42.664;23.256;2024-01-15T10:18:36;93572.41;;;7.49;41.73
6528;BME280;64597;42.664;23.256;2024-01-15T10:21:11;93554.19;;;7.60;40.94
6528;BME280;64597;42.664;23.256;2024-01-15T10:23:36;93550.72;;;7.54;40.85
6528;BME280;64597;42.664;23.256;2024-01-15T10:26:03;93546.44;;;7.48;41.41
6528;BME280;64597;42.664;23.256;2024-01-15T10:28:29;93532.91;;;7.56;40.60
6528;BME280;64597;42.664;23.256;2024-01-15T10:30:57;93550.25;;;7.40;42.39
6528;BME280;64597;42.664;23.256;2024-01-15T10:33:24;93545.94;;;7.34;41.60
6528;BME280;64597;42.664;23.256;2024-01-15T10:35:53;93539.34;;;7.48;41.96
6528;BME280;64597;42.664;23.256;2024-01-15T10:38:20;93469.78;;;7.08;41.18
6528;BME280;64597;42.664;23.256;2024-01-15T10:40:48;93544.44;;;7.55;41.65
6528;BME280;64597;42.664;23.256;2024-01-15T10:43:16;93536.66;;;7.60;41.22
6528;BME280;64597;42.664;23.256;2024-01-15T10:45:44;93542.75;;;7.66;40.87
6528;BME280;64597;42.664;23.256;2024-01-15T10:48:10;93525.06;;;7.56;41.52
6528;BME280;64597;42.664;23.256;2024-01-15T10:50:36;93514.16;;;7.64;41.21
6528;BME280;64597;42.664;23.256;2024-01-15T10:53:04;93515.72;;;7.65;41.31
6528;BME280;64597;42.664;23.256;2024-01-15T10:55:31;93534.78;;;7.61;40.97
6528;BME280;64597;42.664;23.256;2024-01-15T10:57:58;93512.84;;;7.67;41.38
6528;BME280;64597;42.664;23.256;2024-01-15T11:00:24;93511.31;;;7.71;41.79
6528;BME280;64597;42.664;23.256;2024-01-15T11:02:51;93504.88;;;7.78;40.88
6528;BME280;64597;42.664;23.256;2024-01-15T11:05:16;93493.72;;;7.88;40.65
6528;BME280;64597;42.664;23.256;2024-01-15T11:07:43;93487.38;;;8.05;41.03
6528;BME280;64597;42.664;23.256;2024-01-15T11:13:04;93469.75;;;8.01;40.94
6528;BME280;64597;42.664;23.256;2024-01-15T11:15:30;93496.28;;;8.26;40.95
6528;BME280;64597;42.664;23.256;2024-01-15T11:18:00;93486.41;;;8.33;39.77
6528;BME280;64597;42.664;23.256;2024-01-15T11:20:26;93481.44;;;8.15;40.04
6528;BME280;64597;42.664;23.256;2024-01-15T11:22:51;93475.91;;;8.11;40.84
6528;BME280;64597;42.664;23.256;2024-01-15T11:25:20;93486.16;;;8.13;40.10
6528;BME280;64597;42.664;23.256;2024-01-15T11:27:50;93480.28;;;8.06;40.39
6528;BME280;64597;42.664;23.256;2024-01-15T11:30:17;93445.91;;;7.81;40.73
6528;BME280;64597;42.664;23.256;2024-01-15T11:32:43;93483.88;;;8.00;40.50
6528;BME280;64597;42.664;23.256;2024-01-15T11:35:10;93488.03;;;7.96;40.91
6528;BME280;64597;42.664;23.256;2024-01-15T11:37:59;93474.13;;;7.95;40.33
6528;BME280;64597;42.664;23.256;2024-01-15T11:42:59;93474.81;;;7.86;41.26
6528;BME280;64597;42.664;23.256;2024-01-15T11:45:25;93480.25;;;7.63;41.22
6528;BME280;64597;42.664;23.256;2024-01-15T11:48:14;93477.03;;;7.56;41.40
6528;BME280;64597;42.664;23.256;2024-01-15T11:50:48;93448.91;;;7.29;40.90
6528;BME280;64597;42.664;23.256;2024-01-15T11:56:01;93459.53;;;7.23;42.05
6528;BME280;64597;42.664;23.256;2024-01-15T11:58:27;93447.66;;;7.15;42.35
6528;BME280;64597;42.664;23.256;2024-01-15T12:00:53;93450.50;;;7.14;43.03
6528;BME280;64597;42.664;23.256;2024-01-15T12:03:23;93450.28;;;7.15;42.56
6528;BME280;64597;42.664;23.256;2024-01-15T12:05:49;93444.78;;;7.17;42.41
6528;BME280;64597;42.664;23.256;2024-01-15T12:08:21;93408.13;;;7.00;42.90
6528;BME280;64597;42.664;23.256;2024-01-15T12:10:46;93431.28;;;7.08;43.30
6528;BME280;64597;42.664;23.256;2024-01-15T12:13:15;93437.00;;;7.05;43.55
6528;BME280;64597;42.664;23.256;2024-01-15T12:15:42;93426.59;;;7.10;44.24
6528;BME280;64597;42.664;23.256;2024-01-15T12:18:18;93426.75;;;7.04;44.11
6528;BME280;64597;42.664;23.256;2024-01-15T12:20:44;93428.38;;;6.88;43.88
6528;BME280;64597;42.664;23.256;2024-01-15T12:23:12;93429.56;;;6.81;43.33
6528;BME280;64597;42.664;23.256;2024-01-15T12:25:39;93415.75;;;6.68;44.08
6528;BME280;64597;42.664;23.256;2024-01-15T12:28:05;93420.66;;;6.82;43.91
6528;BME280;64597;42.664;23.256;2024-01-15T12:30:33;93427.16;;;6.79;44.03
6528;BME280;64597;42.664;23.256;2024-01-15T12:33:02;93405.59;;;6.72;44.17
6528;BME280;64597;42.664;23.256;2024-01-15T12:35:29;93410.59;;;6.74;45.09
6528;BME280;64597;42.664;23.256;2024-01-15T12:37:55;93409.78;;;6.73;44.55
6528;BME280;64597;42.664;23.256;2024-01-15T12:40:26;93417.66;;;6.73;44.94
6528;BME280;64597;42.664;23.256;2024-01-15T12:42:54;93413.91;;;6.69;45.33
6528;BME280;64597;42.664;23.256;2024-01-15T12:45:20;93389.09;;;6.72;45.05
6528;BME280;64597;42.664;23.256;2024-01-15T12:47:46;93411.94;;;6.76;44.77
6528;BME280;64597;42.664;23.256;2024-01-15T12:50:12;93406.63;;;6.71;45.00
6528;BME280;64597;42.664;23.256;2024-01-15T12:52:40;93390.91;;;6.71;45.08
6528;BME280;64597;42.664;23.256;2024-01-15T12:55:06;93395.13;;;6.72;45.27
6528;BME280;64597;42.664;23.256;2024-01-15T12:57:34;93384.50;;;6.62;45.32
6528;BME280;64597;42.664;23.256;2024-01-15T12:59:59;93369.91;;;6.66;45.73
6528;BME280;64597;42.664;23.256;2024-01-15T13:02:24;93380.13;;;6.68;45.90
6528;BME280;64597;42.664;23.256;2024-01-15T13:04:50;93393.22;;;6.68;45.92
6528;BME280;64597;42.664;23.256;2024-01-15T13:07:16;93384.25;;;6.63;46.19